sensor_id;sensor_type;location;lat;lon;timestamp;temperature;humidity
58554;DHT22;48119;53.218;6.576;2023-01-06T00:02:33;12.80;99.90
58554;DHT22;48119;53.218;6.576;2023-01-06T00:05:27;12.80;99.90
58554;DHT22;48119;53.218;6.576;2023-01-06T00:11:28;12.90;99.90
58554;DHT22;48119;53.218;6.576;2023-01-06T00:14:15;12.90;99.90
58554;DHT22;48119;53.218;6.576;2023-01-06T00:17:16;12.90;99.90
58554;DHT22;48119;53.218;6.576;2023-01-06T00:19:55;12.90;99.90
58554;DHT22;48119;53.218;6.576;2023-01-06T00:22:46;12.90;99.90
58554;DHT22;48119;53.218;6.576;2023-01-06T00:25:15;12.90;99.90
58554;DHT22;48119;53.218;6.576;2023-01-06T00:28:20;12.90;99.90
58554;DHT22;48119;53.218;6.576;2023-01-06T00:31:06;12.90;99.90
58554;DHT22;48119;53.218;6.576;2023-01-06T00:34:11;12.90;99.90
58554;DHT22;48119;53.218;6.576;2023-01-06T00:36:52;13.00;99.90
58554;DHT22;48119;53.218;6.576;2023-01-06T00:39:38;13.00;99.90
58554;DHT22;48119;53.218;6.576;2023-01-06T00:42:37;12.90;99.90
58554;DHT22;48119;53.218;6.576;2023-01-06T00:45:16;13.00;99.90
58554;DHT22;48119;53.218;6.576;2023-01-06T00:50:30;13.00;99.90
58554;DHT22;48119;53.218;6.576;2023-01-06T00:53:05;13.00;99.90
58554;DHT22;48119;53.218;6.576;2023-01-06T00:56:08;12.90;99.90
58554;DHT22;48119;53.218;6.576;2023-01-06T00:58:47;12.90;99.90
58554;DHT22;48119;53.218;6.576;2023-01-06T01:01:49;12.90;99.90
58554;DHT22;48119;53.218;6.576;2023-01-06T01:04:38;12.90;99.90
58554;DHT22;48119;53.218;6.576;2023-01-06T01:10:36;13.00;99.90
58554;DHT22;48119;53.218;6.576;2023-01-06T01:13:10;13.00;99.90
58554;DHT22;48119;53.218;6.576;2023-01-06T01:15:38;13.00;99.90
58554;DHT22;48119;53.218;6.576;2023-01-06T01:18:18;13.00;99.90
58554;DHT22;48119;53.218;6.576;2023-01-06T01:21:07;13.00;99.90
58554;DHT22;48119;53.218;6.576;2023-01-06T01:23:48;13.00;99.90
58554;DHT22;48119;53.218;6.576;2023-01-06T01:26:28;13.00;99.90
58554;DHT22;48119;53.218;6.576;2023-01-06T01:29:07;13.10;99.90
58554;DHT22;48119;53.218;6.576;2023-01-06T01:32:20;13.00;99.90
58554;DHT22;48119;53.218;6.576;2023-01-06T01:35:33;13.10;99.90
58554;DHT22;48119;53.218;6.576;2023-01-06T01:41:38;13.00;99.90
58554;DHT22;48119;53.218;6.576;2023-01-06T01:47:57;13.00;99.90
58554;DHT22;48119;53.218;6.576;2023-01-06T01:50:44;13.00;99.90
58554;DHT22;48119;53.218;6.576;2023-01-06T01:54:00;13.00;99.90
58554;DHT22;48119;53.218;6.576;2023-01-06T01:59:33;13.00;99.90
58554;DHT22;48119;53.218;6.576;2023-01-06T02:02:29;13.00;99.90
58554;DHT22;48119;53.218;6.576;2023-01-06T02:05:14;13.00;99.90
58554;DHT22;48119;53.218;6.576;2023-01-06T02:11:18;13.00;99.90
58554;DHT22;48119;53.218;6.576;2023-01-06T02:17:18;13.00;99.90
58554;DHT22;48119;53.218;6.576;2023-01-06T02:47:05;12.90;99.90
58554;DHT22;48119;53.218;6.576;2023-01-06T02:58:49;12.90;99.90
58554;DHT22;48119;53.218;6.576;2023-01-06T03:01:56;13.00;99.90
58554;DHT22;48119;53.218;6.576;2023-01-06T03:04:41;13.00;99.90
58554;DHT22;48119;53.218;6.576;2023-01-06T03:07:15;13.00;99.90
58554;DHT22;48119;53.218;6.576;2023-01-06T03:10:06;13.00;99.90
58554;DHT22;48119;53.218;6.576;2023-01-06T03:16:12;12.90;99.90
58554;DHT22;48119;53.218;6.576;2023-01-06T03:18:42;12.90;99.90
58554;DHT22;48119;53.218;6.576;2023-01-06T03:21:32;12.90;99.90
58554;DHT22;48119;53.218;6.576;2023-01-06T03:24:02;12.90;99.90
58554;DHT22;48119;53.218;6.576;2023-01-06T03:26:45;12.90;99.90
58554;DHT22;48119;53.218;6.576;2023-01-06T03:29:49;12.90;99.90
58554;DHT22;48119;53.218;6.576;2023-01-06T03:41:31;12.90;99.90
58554;DHT22;48119;53.218;6.576;2023-01-06T03:50:55;12.90;99.90
58554;DHT22;48119;53.218;6.576;2023-01-06T03:57:14;12.90;99.90
58554;DHT22;48119;53.218;6.576;2023-01-06T04:00:28;12.90;99.90
58554;DHT22;48119;53.218;6.576;2023-01-06T04:02:55;12.90;99.90
58554;DHT22;48119;53.218;6.576;2023-01-06T04:05:29;12.90;99.90
58554;DHT22;48119;53.218;6.576;2023-01-06T04:07:58;12.90;99.90
58554;DHT22;48119;53.218;6.576;2023-01-06T04:10:35;12.90;99.90
58554;DHT22;48119;53.218;6.576;2023-01-06T04:16:06;13.00;99.90
58554;DHT22;48119;53.218;6.576;2023-01-06T04:18:37;13.00;99.90
58554;DHT22;48119;53.218;6.576;2023-01-06T04:21:23;12.90;99.90
58554;DHT22;48119;53.218;6.576;2023-01-06T04:26:53;13.00;99.90
58554;DHT22;48119;53.218;6.576;2023-01-06T04:29:27;12.90;99.90
58554;DHT22;48119;53.218;6.576;2023-01-06T04:32:13;13.00;99.90
58554;DHT22;48119;53.218;6.576;2023-01-06T04:38:23;13.00;99.90
58554;DHT22;48119;53.218;6.576;2023-01-06T04:41:20;13.00;99.90
58554;DHT22;48119;53.218;6.576;2023-01-06T04:44:16;12.80;99.90
58554;DHT22;48119;53.218;6.576;2023-01-06T04:47:05;12.90;99.90
58554;DHT22;48119;53.218;6.576;2023-01-06T04:49:42;12.90;99.90
58554;DHT22;48119;53.218;6.576;2023-01-06T04:52:31;12.90;99.90
58554;DHT22;48119;53.218;6.576;2023-01-06T04:55:02;12.80;99.90
58554;DHT22;48119;53.218;6.576;2023-01-06T04:57:49;12.90;99.90
58554;DHT22;48119;53.218;6.576;2023-01-06T05:00:37;12.90;99.90
58554;DHT22;48119;53.218;6.576;2023-01-06T05:03:16;13.00;99.90
58554;DHT22;48119;53.218;6.576;2023-01-06T05:08:42;12.90;99.90
58554;DHT22;48119;53.218;6.576;2023-01-06T05:11:28;12.90;99.90
58554;DHT22;48119;53.218;6.576;2023-01-06T05:14:10;12.90;99.90
58554;DHT22;48119;53.218;6.576;2023-01-06T05:20:03;12.90;99.90
58554;DHT22;48119;53.218;6.576;2023-01-06T05:23:10;12.90;99.90
58554;DHT22;48119;53.218;6.576;2023-01-06T05:25:59;12.90;99.90
58554;DHT22;48119;53.218;6.576;2023-01-06T05:31:49;12.80;99.90
58554;DHT22;48119;53.218;6.576;2023-01-06T05:34:15;12.90;99.90
58554;DHT22;48119;53.218;6.576;2023-01-06T05:36:41;12.90;99.90
58554;DHT22;48119;53.218;6.576;2023-01-06T05:39:06;12.90;99.90
58554;DHT22;48119;53.218;6.576;2023-01-06T05:41:32;12.90;99.90
58554;DHT22;48119;53.218;6.576;2023-01-06T05:43:58;12.90;99.90
58554;DHT22;48119;53.218;6.576;2023-01-06T05:46:23;12.90;99.90
58554;DHT22;48119;53.218;6.576;2023-01-06T05:48:49;12.90;99.90
58554;DHT22;48119;53.218;6.576;2023-01-06T05:51:15;12.90;99.90
58554;DHT22;48119;53.218;6.576;2023-01-06T05:53:43;12.90;99.90
58554;DHT22;48119;53.218;6.576;2023-01-06T05:56:11;12.90;99.90
58554;DHT22;48119;53.218;6.576;2023-01-06T05:58:38;12.90;99.90
58554;DHT22;48119;53.218;6.576;2023-01-06T06:01:17;12.90;99.90
58554;DHT22;48119;53.218;6.576;2023-01-06T06:03:44;12.90;99.90
58554;DHT22;48119;53.218;6.576;2023-01-06T06:06:09;12.80;99.90
58554;DHT22;48119;53.218;6.576;2023-01-06T06:08:35;12.80;99.90
58554;DHT22;48119;53.218;6.576;2023-01-06T06:11:07;12.80;99.90
58554;DHT22;48119;53.218;6.576;2023-01-06T06:13:33;12.70;99.90
58554;DHT22;48119;53.218;6.576;2023-01-06T06:16:03;12.70;99.90
58554;DHT22;48119;53.218;6.576;2023-01-06T06:18:29;12.70;99.90
58554;DHT22;48119;53.218;6.576;2023-01-06T06:21:02;12.70;99.90
58554;DHT22;48119;53.218;6.576;2023-01-06T06:23:29;12.70;99.90
58554;DHT22;48119;53.218;6.576;2023-01-06T06:25:55;12.70;99.90
58554;DHT22;48119;53.218;6.576;2023-01-06T06:28:21;12.80;99.90
58554;DHT22;48119;53.218;6.576;2023-01-06T06:30:47;12.80;99.90
58554;DHT22;48119;53.218;6.576;2023-01-06T06:33:13;12.80;99.90
58554;DHT22;48119;53.218;6.576;2023-01-06T06:35:44;12.70;99.90
58554;DHT22;48119;53.218;6.576;2023-01-06T06:38:09;12.70;99.90
58554;DHT22;48119;53.218;6.576;2023-01-06T06:40:35;12.70;99.90
58554;DHT22;48119;53.218;6.576;2023-01-06T06:43:01;12.70;99.90
58554;DHT22;48119;53.218;6.576;2023-01-06T06:45:27;12.80;99.90
58554;DHT22;48119;53.218;6.576;2023-01-06T06:47:53;12.80;99.90
58554;DHT22;48119;53.218;6.576;2023-01-06T06:50:19;12.80;99.90
58554;DHT22;48119;53.218;6.576;2023-01-06T06:52:45;12.80;99.90
58554;DHT22;48119;53.218;6.576;2023-01-06T06:55:11;12.80;99.90
58554;DHT22;48119;53.218;6.576;2023-01-06T06:57:37;12.80;99.90
58554;DHT22;48119;53.218;6.576;2023-01-06T07:00:03;12.80;99.90
58554;DHT22;48119;53.218;6.576;2023-01-06T07:02:29;12.80;99.90
58554;DHT22;48119;53.218;6.576;2023-01-06T07:04:55;12.70;99.90
58554;DHT22;48119;53.218;6.576;2023-01-06T07:07:21;12.70;99.90
58554;DHT22;48119;53.218;6.576;2023-01-06T07:09:47;12.80;99.90
58554;DHT22;48119;53.218;6.576;2023-01-06T07:12:12;12.70;99.90
58554;DHT22;48119;53.218;6.576;2023-01-06T07:14:38;12.80;99.90
58554;DHT22;48119;53.218;6.576;2023-01-06T07:17:04;12.80;99.90
58554;DHT22;48119;53.218;6.576;2023-01-06T07:19:30;12.70;99.90
58554;DHT22;48119;53.218;6.576;2023-01-06T07:21:55;12.80;99.90
58554;DHT22;48119;53.218;6.576;2023-01-06T07:24:22;12.80;99.90
58554;DHT22;48119;53.218;6.576;2023-01-06T07:26:48;12.70;99.90
58554;DHT22;48119;53.218;6.576;2023-01-06T07:29:14;12.80;99.90
58554;DHT22;48119;53.218;6.576;2023-01-06T07:31:40;12.80;99.90
58554;DHT22;48119;53.218;6.576;2023-01-06T07:34:06;12.70;99.90
58554;DHT22;48119;53.218;6.576;2023-01-06T07:36:31;12.70;99.90
58554;DHT22;48119;53.218;6.576;2023-01-06T07:38:57;12.70;99.90
58554;DHT22;48119;53.218;6.576;2023-01-06T07:41:23;12.70;99.90
58554;DHT22;48119;53.218;6.576;2023-01-06T07:43:48;12.70;99.90
58554;DHT22;48119;53.218;6.576;2023-01-06T07:46:14;12.70;99.90
58554;DHT22;48119;53.218;6.576;2023-01-06T07:48:40;12.70;99.90
58554;DHT22;48119;53.218;6.576;2023-01-06T07:51:05;12.70;99.90
58554;DHT22;48119;53.218;6.576;2023-01-06T07:53:31;12.70;99.90
58554;DHT22;48119;53.218;6.576;2023-01-06T07:55:57;12.70;99.90
58554;DHT22;48119;53.218;6.576;2023-01-06T07:58:23;12.70;99.90
58554;DHT22;48119;53.218;6.576;2023-01-06T08:00:49;12.70;99.90
58554;DHT22;48119;53.218;6.576;2023-01-06T08:03:15;12.70;99.90
58554;DHT22;48119;53.218;6.576;2023-01-06T08:05:41;12.70;99.90
58554;DHT22;48119;53.218;6.576;2023-01-06T08:08:08;12.60;99.90
58554;DHT22;48119;53.218;6.576;2023-01-06T08:10:37;12.60;99.90
58554;DHT22;48119;53.218;6.576;2023-01-06T08:13:03;12.60;99.90
58554;DHT22;48119;53.218;6.576;2023-01-06T08:15:28;12.50;99.90
58554;DHT22;48119;53.218;6.576;2023-01-06T08:17:54;12.60;99.90
58554;DHT22;48119;53.218;6.576;2023-01-06T08:20:21;12.50;99.90
58554;DHT22;48119;53.218;6.576;2023-01-06T08:22:47;12.50;99.90
58554;DHT22;48119;53.218;6.576;2023-01-06T08:25:13;12.50;99.90
58554;DHT22;48119;53.218;6.576;2023-01-06T08:27:39;12.50;99.90
58554;DHT22;48119;53.218;6.576;2023-01-06T08:30:05;12.40;99.90
58554;DHT22;48119;53.218;6.576;2023-01-06T08:32:31;12.40;99.90
58554;DHT22;48119;53.218;6.576;2023-01-06T08:34:56;12.40;99.90
58554;DHT22;48119;53.218;6.576;2023-01-06T08:37:22;12.40;99.90
58554;DHT22;48119;53.218;6.576;2023-01-06T08:39:48;12.30;99.90
58554;DHT22;48119;53.218;6.576;2023-01-06T08:42:13;12.30;99.90
58554;DHT22;48119;53.218;6.576;2023-01-06T08:44:39;12.30;99.90
58554;DHT22;48119;53.218;6.576;2023-01-06T08:47:05;12.30;99.90
58554;DHT22;48119;53.218;6.576;2023-01-06T08:49:30;12.30;99.90
58554;DHT22;48119;53.218;6.576;2023-01-06T08:51:56;12.30;99.90
58554;DHT22;48119;53.218;6.576;2023-01-06T08:54:22;12.30;99.90
58554;DHT22;48119;53.218;6.576;2023-01-06T08:56:47;12.30;99.90
58554;DHT22;48119;53.218;6.576;2023-01-06T08:59:15;12.20;99.90
58554;DHT22;48119;53.218;6.576;2023-01-06T09:01:42;12.20;99.90
58554;DHT22;48119;53.218;6.576;2023-01-06T09:04:08;12.20;99.90
58554;DHT22;48119;53.218;6.576;2023-01-06T09:06:35;12.20;99.90
58554;DHT22;48119;53.218;6.576;2023-01-06T09:09:02;12.10;99.90
58554;DHT22;48119;53.218;6.576;2023-01-06T09:11:32;12.10;99.90
58554;DHT22;48119;53.218;6.576;2023-01-06T09:13:58;12.10;99.90
58554;DHT22;48119;53.218;6.576;2023-01-06T09:16:24;12.10;99.90
58554;DHT22;48119;53.218;6.576;2023-01-06T09:18:49;12.10;99.90
58554;DHT22;48119;53.218;6.576;2023-01-06T09:21:18;12.10;99.90
58554;DHT22;48119;53.218;6.576;2023-01-06T09:23:44;12.10;99.90
58554;DHT22;48119;53.218;6.576;2023-01-06T09:26:10;12.00;99.90
58554;DHT22;48119;53.218;6.576;2023-01-06T09:28:36;12.00;99.90
58554;DHT22;48119;53.218;6.576;2023-01-06T09:31:01;12.00;99.90
58554;DHT22;48119;53.218;6.576;2023-01-06T09:33:30;12.00;99.90
58554;DHT22;48119;53.218;6.576;2023-01-06T09:35:56;12.00;99.90
58554;DHT22;48119;53.218;6.576;2023-01-06T09:38:22;12.00;99.90
58554;DHT22;48119;53.218;6.576;2023-01-06T09:46:33;11.90;99.90
58554;DHT22;48119;53.218;6.576;2023-01-06T09:49:31;12.00;99.90
58554;DHT22;48119;53.218;6.576;2023-01-06T09:52:28;12.00;99.90
58554;DHT22;48119;53.218;6.576;2023-01-06T09:55:03;12.00;99.90
58554;DHT22;48119;53.218;6.576;2023-01-06T09:57:39;12.00;99.90
58554;DHT22;48119;53.218;6.576;2023-01-06T10:00:32;12.00;99.90
58554;DHT22;48119;53.218;6.576;2023-01-06T10:02:59;12.10;99.90
58554;DHT22;48119;53.218;6.576;2023-01-06T10:05:44;12.10;99.90
58554;DHT22;48119;53.218;6.576;2023-01-06T10:21:47;12.10;99.90
58554;DHT22;48119;53.218;6.576;2023-01-06T10:26:59;12.10;99.90
58554;DHT22;48119;53.218;6.576;2023-01-06T10:29:34;12.10;99.90
58554;DHT22;48119;53.218;6.576;2023-01-06T10:32:18;12.10;99.90
58554;DHT22;48119;53.218;6.576;2023-01-06T10:35:14;12.10;99.90
58554;DHT22;48119;53.218;6.576;2023-01-06T10:37:45;12.10;99.90
58554;DHT22;48119;53.218;6.576;2023-01-06T10:40:22;12.10;99.90
58554;DHT22;48119;53.218;6.576;2023-01-06T10:43:02;12.20;99.90
58554;DHT22;48119;53.218;6.576;2023-01-06T10:45:45;12.20;99.90
58554;DHT22;48119;53.218;6.576;2023-01-06T10:48:18;12.20;99.90
58554;DHT22;48119;53.218;6.576;2023-01-06T10:50:46;12.20;99.90
58554;DHT22;48119;53.218;6.576;2023-01-06T10:53:15;12.20;99.90
58554;DHT22;48119;53.218;6.576;2023-01-06T10:55:56;12.20;99.90
58554;DHT22;48119;53.218;6.576;2023-01-06T10:58:41;12.20;99.90
58554;DHT22;48119;53.218;6.576;2023-01-06T11:01:12;12.30;99.90
58554;DHT22;48119;53.218;6.576;2023-01-06T11:03:40;12.20;99.90
58554;DHT22;48119;53.218;6.576;2023-01-06T11:06:29;12.20;99.90
58554;DHT22;48119;53.218;6.576;2023-01-06T11:08:56;12.20;99.90
58554;DHT22;48119;53.218;6.576;2023-01-06T11:11:23;12.20;99.90
58554;DHT22;48119;53.218;6.576;2023-01-06T11:13:51;12.20;99.90
58554;DHT22;48119;53.218;6.576;2023-01-06T11:16:23;12.20;99.90
58554;DHT22;48119;53.218;6.576;2023-01-06T11:18:56;12.20;99.90
58554;DHT22;48119;53.218;6.576;2023-01-06T11:21:42;12.20;99.90
58554;DHT22;48119;53.218;6.576;2023-01-06T11:24:16;12.20;99.90
58554;DHT22;48119;53.218;6.576;2023-01-06T11:27:00;12.20;99.90
58554;DHT22;48119;53.218;6.576;2023-01-06T11:29:32;12.30;99.90
58554;DHT22;48119;53.218;6.576;2023-01-06T11:32:25;12.30;99.90
58554;DHT22;48119;53.218;6.576;2023-01-06T11:34:58;12.30;99.90
58554;DHT22;48119;53.218;6.576;2023-01-06T11:37:42;12.30;99.90
58554;DHT22;48119;53.218;6.576;2023-01-06T11:40:27;12.30;99.90
58554;DHT22;48119;53.218;6.576;2023-01-06T11:43:02;12.30;99.90
58554;DHT22;48119;53.218;6.576;2023-01-06T11:45:34;12.30;99.90
58554;DHT22;48119;53.218;6.576;2023-01-06T11:48:06;12.30;99.90
58554;DHT22;48119;53.218;6.576;2023-01-06T11:50:36;12.30;99.90
58554;DHT22;48119;53.218;6.576;2023-01-06T11:53:12;12.30;99.90
58554;DHT22;48119;53.218;6.576;2023-01-06T11:55:39;12.30;99.90
58554;DHT22;48119;53.218;6.576;2023-01-06T11:58:12;12.30;99.90
58554;DHT22;48119;53.218;6.576;2023-01-06T12:01:07;12.40;99.90
58554;DHT22;48119;53.218;6.576;2023-01-06T12:03:47;12.40;99.90
58554;DHT22;48119;53.218;6.576;2023-01-06T12:09:00;12.40;99.90
58554;DHT22;48119;53.218;6.576;2023-01-06T12:14:02;12.40;99.90
58554;DHT22;48119;53.218;6.576;2023-01-06T12:22:42;12.40;99.90
58554;DHT22;48119;53.218;6.576;2023-01-06T12:25:05;12.40;99.90
58554;DHT22;48119;53.218;6.576;2023-01-06T12:27:56;12.40;99.90
58554;DHT22;48119;53.218;6.576;2023-01-06T12:33:58;12.50;99.90
58554;DHT22;48119;53.218;6.576;2023-01-06T12:36:37;12.50;99.90
58554;DHT22;48119;53.218;6.576;2023-01-06T12:39:27;12.50;99.90
58554;DHT22;48119;53.218;6.576;2023-01-06T12:42:09;12.50;99.90
58554;DHT22;48119;53.218;6.576;2023-01-06T12:47:22;12.50;99.90
58554;DHT22;48119;53.218;6.576;2023-01-06T12:49:57;12.40;99.90
58554;DHT22;48119;53.218;6.576;2023-01-06T12:52:32;12.40;99.90
58554;DHT22;48119;53.218;6.576;2023-01-06T12:54:59;12.40;99.90
58554;DHT22;48119;53.218;6.576;2023-01-06T13:03:20;12.50;99.90
58554;DHT22;48119;53.218;6.576;2023-01-06T13:16:42;12.40;99.90
58554;DHT22;48119;53.218;6.576;2023-01-06T13:22:13;12.40;99.90
58554;DHT22;48119;53.218;6.576;2023-01-06T13:28:03;12.40;99.90
58554;DHT22;48119;53.218;6.576;2023-01-06T13:31:02;12.40;99.90
58554;DHT22;48119;53.218;6.576;2023-01-06T13:33:29;12.40;99.90
58554;DHT22;48119;53.218;6.576;2023-01-06T13:38:54;12.40;99.90
58554;DHT22;48119;53.218;6.576;2023-01-06T13:41:25;12.40;99.90
58554;DHT22;48119;53.218;6.576;2023-01-06T13:43:55;12.40;99.90
58554;DHT22;48119;53.218;6.576;2023-01-06T13:46:22;12.40;99.90
58554;DHT22;48119;53.218;6.576;2023-01-06T13:48:54;12.40;99.90
58554;DHT22;48119;53.218;6.576;2023-01-06T13:51:26;12.40;99.90
58554;DHT22;48119;53.218;6.576;2023-01-06T13:53:52;12.40;99.90
58554;DHT22;48119;53.218;6.576;2023-01-06T13:56:35;12.40;99.90
58554;DHT22;48119;53.218;6.576;2023-01-06T13:59:22;12.40;99.90
58554;DHT22;48119;53.218;6.576;2023-01-06T14:01:48;12.40;99.90
58554;DHT22;48119;53.218;6.576;2023-01-06T14:07:01;12.30;99.90
58554;DHT22;48119;53.218;6.576;2023-01-06T14:09:34;12.30;99.90
58554;DHT22;48119;53.218;6.576;2023-01-06T14:12:16;12.30;99.90
58554;DHT22;48119;53.218;6.576;2023-01-06T14:14:57;12.30;99.90
58554;DHT22;48119;53.218;6.576;2023-01-06T14:17:38;12.20;99.90
58554;DHT22;48119;53.218;6.576;2023-01-06T14:20:05;12.20;99.90
58554;DHT22;48119;53.218;6.576;2023-01-06T14:22:31;12.20;99.90
58554;DHT22;48119;53.218;6.576;2023-01-06T14:25:04;12.20;99.90
58554;DHT22;48119;53.218;6.576;2023-01-06T14:30:26;12.30;99.90
58554;DHT22;48119;53.218;6.576;2023-01-06T14:33:04;12.30;99.90
58554;DHT22;48119;53.218;6.576;2023-01-06T14:35:40;12.30;99.90
58554;DHT22;48119;53.218;6.576;2023-01-06T14:38:29;12.30;99.90
58554;DHT22;48119;53.218;6.576;2023-01-06T14:41:05;12.30;99.90
58554;DHT22;48119;53.218;6.576;2023-01-06T14:46:30;12.30;99.90
58554;DHT22;48119;53.218;6.576;2023-01-06T14:49:03;12.30;99.90
58554;DHT22;48119;53.218;6.576;2023-01-06T14:51:31;12.20;99.90
58554;DHT22;48119;53.218;6.576;2023-01-06T14:54:29;12.20;99.90
58554;DHT22;48119;53.218;6.576;2023-01-06T14:56:57;12.20;99.90
58554;DHT22;48119;53.218;6.576;2023-01-06T14:59:27;12.20;99.90
58554;DHT22;48119;53.218;6.576;2023-01-06T15:02:11;12.20;99.90
58554;DHT22;48119;53.218;6.576;2023-01-06T15:04:41;12.20;99.90
58554;DHT22;48119;53.218;6.576;2023-01-06T15:07:15;12.10;99.90
58554;DHT22;48119;53.218;6.576;2023-01-06T15:09:48;12.10;99.90
58554;DHT22;48119;53.218;6.576;2023-01-06T15:12:29;12.10;99.90
58554;DHT22;48119;53.218;6.576;2023-01-06T15:14:56;12.10;99.90
58554;DHT22;48119;53.218;6.576;2023-01-06T15:17:22;12.10;99.90
58554;DHT22;48119;53.218;6.576;2023-01-06T15:19:49;12.10;99.90
58554;DHT22;48119;53.218;6.576;2023-01-06T15:22:22;12.10;99.90
58554;DHT22;48119;53.218;6.576;2023-01-06T15:24:48;12.10;99.90
58554;DHT22;48119;53.218;6.576;2023-01-06T15:27:16;12.00;99.90
58554;DHT22;48119;53.218;6.576;2023-01-06T15:29:53;12.00;99.90
58554;DHT22;48119;53.218;6.576;2023-01-06T15:32:22;12.10;99.90
58554;DHT22;48119;53.218;6.576;2023-01-06T15:34:49;12.10;99.90
58554;DHT22;48119;53.218;6.576;2023-01-06T15:37:19;12.10;99.90
58554;DHT22;48119;53.218;6.576;2023-01-06T15:39:46;12.00;99.90
58554;DHT22;48119;53.218;6.576;2023-01-06T15:42:12;12.00;99.90
58554;DHT22;48119;53.218;6.576;2023-01-06T15:44:39;12.10;99.90
58554;DHT22;48119;53.218;6.576;2023-01-06T15:49:49;12.00;99.90
58554;DHT22;48119;53.218;6.576;2023-01-06T15:52:28;12.00;99.90
58554;DHT22;48119;53.218;6.576;2023-01-06T15:55:02;12.00;99.90
58554;DHT22;48119;53.218;6.576;2023-01-06T15:57:35;11.90;99.90
58554;DHT22;48119;53.218;6.576;2023-01-06T16:00:22;11.90;99.90
58554;DHT22;48119;53.218;6.576;2023-01-06T16:02:48;11.90;99.90
58554;DHT22;48119;53.218;6.576;2023-01-06T16:08:14;11.90;99.90
58554;DHT22;48119;53.218;6.576;2023-01-06T16:10:40;11.90;99.90
58554;DHT22;48119;53.218;6.576;2023-01-06T16:15:53;11.90;99.90
58554;DHT22;48119;53.218;6.576;2023-01-06T16:18:28;11.90;99.90
58554;DHT22;48119;53.218;6.576;2023-01-06T16:20:55;11.80;99.90
58554;DHT22;48119;53.218;6.576;2023-01-06T16:23:30;11.80;99.90
58554;DHT22;48119;53.218;6.576;2023-01-06T16:26:23;11.80;99.90
58554;DHT22;48119;53.218;6.576;2023-01-06T16:28:55;11.80;99.90
58554;DHT22;48119;53.218;6.576;2023-01-06T16:36:49;11.80;99.90
58554;DHT22;48119;53.218;6.576;2023-01-06T16:39:14;11.80;99.90
58554;DHT22;48119;53.218;6.576;2023-01-06T16:44:25;11.80;99.90
58554;DHT22;48119;53.218;6.576;2023-01-06T16:46:50;11.80;99.90
58554;DHT22;48119;53.218;6.576;2023-01-06T16:49:16;11.80;99.90
58554;DHT22;48119;53.218;6.576;2023-01-06T16:51:43;11.80;99.90
58554;DHT22;48119;53.218;6.576;2023-01-06T16:54:10;11.80;99.90
58554;DHT22;48119;53.218;6.576;2023-01-06T16:56:37;11.80;99.90
58554;DHT22;48119;53.218;6.576;2023-01-06T16:59:14;11.80;99.90
58554;DHT22;48119;53.218;6.576;2023-01-06T17:01:44;11.80;99.90
58554;DHT22;48119;53.218;6.576;2023-01-06T17:04:12;11.80;99.90
58554;DHT22;48119;53.218;6.576;2023-01-06T17:06:39;11.80;99.90
58554;DHT22;48119;53.218;6.576;2023-01-06T17:09:23;11.80;99.90
58554;DHT22;48119;53.218;6.576;2023-01-06T17:11:50;11.70;99.90
58554;DHT22;48119;53.218;6.576;2023-01-06T17:14:21;11.70;99.90
58554;DHT22;48119;53.218;6.576;2023-01-06T17:16:48;11.70;99.90
58554;DHT22;48119;53.218;6.576;2023-01-06T17:21:44;11.60;99.90
58554;DHT22;48119;53.218;6.576;2023-01-06T17:24:20;11.60;99.90
58554;DHT22;48119;53.218;6.576;2023-01-06T17:29:17;11.60;99.90
58554;DHT22;48119;53.218;6.576;2023-01-06T17:31:46;11.70;99.90
58554;DHT22;48119;53.218;6.576;2023-01-06T17:34:18;11.60;99.90
58554;DHT22;48119;53.218;6.576;2023-01-06T17:36:48;11.60;99.90
58554;DHT22;48119;53.218;6.576;2023-01-06T17:39:20;11.60;99.90
58554;DHT22;48119;53.218;6.576;2023-01-06T17:41:47;11.60;99.90
58554;DHT22;48119;53.218;6.576;2023-01-06T17:44:17;11.60;99.90
58554;DHT22;48119;53.218;6.576;2023-01-06T17:46:44;11.60;99.90
58554;DHT22;48119;53.218;6.576;2023-01-06T17:51:43;11.50;99.90
58554;DHT22;48119;53.218;6.576;2023-01-06T17:54:17;11.50;99.90
58554;DHT22;48119;53.218;6.576;2023-01-06T17:57:22;11.50;99.90
58554;DHT22;48119;53.218;6.576;2023-01-06T17:59:53;11.50;99.90
58554;DHT22;48119;53.218;6.576;2023-01-06T18:02:39;11.50;99.90
58554;DHT22;48119;53.218;6.576;2023-01-06T18:10:24;11.50;99.90
58554;DHT22;48119;53.218;6.576;2023-01-06T18:12:52;11.50;99.90
58554;DHT22;48119;53.218;6.576;2023-01-06T18:17:51;11.50;99.90
58554;DHT22;48119;53.218;6.576;2023-01-06T18:20:17;11.50;99.90
58554;DHT22;48119;53.218;6.576;2023-01-06T18:22:43;11.50;99.90
58554;DHT22;48119;53.218;6.576;2023-01-06T18:25:21;11.50;99.90
58554;DHT22;48119;53.218;6.576;2023-01-06T18:27:49;11.50;99.90
58554;DHT22;48119;53.218;6.576;2023-01-06T18:30:23;11.50;99.90
58554;DHT22;48119;53.218;6.576;2023-01-06T18:32:52;11.40;99.90
58554;DHT22;48119;53.218;6.576;2023-01-06T18:35:21;11.40;99.90
58554;DHT22;48119;53.218;6.576;2023-01-06T18:37:49;11.40;99.90
58554;DHT22;48119;53.218;6.576;2023-01-06T18:40:23;11.40;99.90
58554;DHT22;48119;53.218;6.576;2023-01-06T18:42:50;11.40;99.90
58554;DHT22;48119;53.218;6.576;2023-01-06T18:45:32;11.40;99.90
58554;DHT22;48119;53.218;6.576;2023-01-06T18:50:41;11.40;99.90
58554;DHT22;48119;53.218;6.576;2023-01-06T18:53:30;11.40;99.90
58554;DHT22;48119;53.218;6.576;2023-01-06T18:55:58;11.40;99.90
58554;DHT22;48119;53.218;6.576;2023-01-06T18:58:31;11.40;99.90
58554;DHT22;48119;53.218;6.576;2023-01-06T19:01:00;11.40;99.90
58554;DHT22;48119;53.218;6.576;2023-01-06T19:03:31;11.30;99.90
58554;DHT22;48119;53.218;6.576;2023-01-06T19:08:38;11.40;99.90
58554;DHT22;48119;53.218;6.576;2023-01-06T19:11:12;11.40;99.90
58554;DHT22;48119;53.218;6.576;2023-01-06T19:13:40;11.40;99.90
58554;DHT22;48119;53.218;6.576;2023-01-06T19:16:26;11.30;99.90
58554;DHT22;48119;53.218;6.576;2023-01-06T19:18:52;11.40;99.90
58554;DHT22;48119;53.218;6.576;2023-01-06T19:21:18;11.40;99.90
58554;DHT22;48119;53.218;6.576;2023-01-06T19:23:43;11.40;99.90
58554;DHT22;48119;53.218;6.576;2023-01-06T19:28:45;11.30;99.90
58554;DHT22;48119;53.218;6.576;2023-01-06T19:31:20;11.30;99.90
58554;DHT22;48119;53.218;6.576;2023-01-06T19:33:49;11.30;99.90
58554;DHT22;48119;53.218;6.576;2023-01-06T19:36:29;11.30;99.90
58554;DHT22;48119;53.218;6.576;2023-01-06T19:39:06;11.20;99.90
58554;DHT22;48119;53.218;6.576;2023-01-06T19:41:33;11.20;99.90
58554;DHT22;48119;53.218;6.576;2023-01-06T19:46:35;11.20;99.90
58554;DHT22;48119;53.218;6.576;2023-01-06T19:49:22;11.20;99.90
58554;DHT22;48119;53.218;6.576;2023-01-06T19:51:50;11.20;99.90
58554;DHT22;48119;53.218;6.576;2023-01-06T19:54:33;11.10;99.90